createdAt,value
2023-01-13T00:03:37.605Z,7.71
2023-01-13T00:18:40.631Z,7.71
2023-01-13T00:33:44.811Z,7.75
2023-01-13T00:48:49.496Z,7.82
2023-01-13T01:03:54.155Z,7.85
2023-01-13T01:18:57.862Z,7.82
2023-01-13T01:34:01.588Z,7.83
2023-01-13T01:49:29.537Z,7.80
2023-01-13T02:04:40.431Z,7.78
2023-01-13T02:20:18.113Z,7.80
2023-01-13T02:35:29.481Z,7.82
2023-01-13T02:50:41.495Z,7.85
2023-01-13T03:05:48.153Z,7.86
2023-01-13T03:21:22.892Z,7.88
2023-01-13T03:36:30.046Z,7.90
2023-01-13T03:51:39.238Z,7.93
2023-01-13T04:07:29.255Z,8.00
2023-01-13T04:22:31.928Z,8.05
2023-01-13T04:37:35.044Z,8.07
2023-01-13T04:52:38.696Z,8.08
2023-01-13T05:07:41.221Z,8.09
2023-01-13T05:23:02.442Z,8.06
2023-01-13T05:38:05.568Z,8.05
2023-01-13T05:53:08.139Z,8.02
2023-01-13T06:08:10.611Z,8.03
2023-01-13T06:23:13.462Z,8.05
2023-01-13T06:38:19.065Z,8.12
2023-01-13T06:53:36.131Z,8.17
2023-01-13T07:08:38.604Z,8.20
2023-01-13T07:23:41.678Z,8.20
2023-01-13T07:38:45.253Z,8.24
2023-01-13T07:53:48.430Z,8.28
2023-01-13T08:08:51.306Z,8.28
2023-01-13T08:23:54.197Z,8.36
2023-01-13T08:38:57.530Z,8.46
2023-01-13T08:54:00.451Z,8.53
2023-01-13T09:09:03.134Z,8.65
2023-01-13T09:24:06.609Z,8.79
2023-01-13T09:39:09.745Z,9.10
2023-01-13T09:54:27.731Z,9.35
2023-01-13T10:09:53.596Z,9.39
2023-01-13T10:25:09.339Z,9.53
2023-01-13T10:40:18.431Z,9.49
2023-01-13T10:55:38.389Z,9.44
2023-01-13T11:10:49.444Z,9.61
2023-01-13T11:26:02.102Z,9.74
2023-01-13T11:41:44.456Z,9.73
2023-01-13T11:57:05.027Z,9.70
2023-01-13T12:12:35.041Z,9.67
2023-01-13T12:28:04.233Z,9.67
2023-01-13T12:59:23.012Z,9.57
2023-01-13T13:14:56.567Z,9.55
2023-01-13T13:30:55.179Z,9.52
2023-01-13T13:46:55.231Z,9.32
2023-01-13T14:02:24.436Z,8.99
2023-01-13T14:17:31.756Z,8.81
2023-01-13T14:32:36.982Z,8.65
2023-01-13T14:47:40.078Z,8.64
2023-01-13T15:02:57.243Z,8.67
2023-01-13T15:18:05.377Z,8.63
2023-01-13T15:33:12.030Z,8.60
2023-01-13T15:48:15.401Z,8.59
2023-01-13T16:03:18.585Z,8.42
2023-01-13T16:18:23.836Z,8.18
2023-01-13T16:33:26.597Z,7.92
2023-01-13T16:48:29.924Z,7.70
2023-01-13T17:03:35.278Z,7.55
2023-01-13T17:18:37.846Z,7.33
2023-01-13T17:33:40.671Z,7.10
2023-01-13T17:48:44.190Z,6.98
2023-01-13T18:03:48.659Z,6.85
2023-01-13T18:18:53.396Z,6.79
2023-01-13T18:33:56.688Z,6.61
2023-01-13T18:49:00.259Z,6.51
2023-01-13T19:04:10.193Z,6.54
2023-01-13T19:19:13.277Z,6.23
2023-01-13T19:34:16.531Z,5.98
2023-01-13T19:49:19.912Z,6.04
2023-01-13T20:04:29.224Z,6.10
2023-01-13T20:19:32.748Z,6.13
2023-01-13T20:34:35.983Z,6.11
2023-01-13T20:49:39.409Z,6.14
2023-01-13T21:04:43.021Z,6.11
2023-01-13T21:19:45.844Z,6.08
2023-01-13T21:34:48.873Z,6.03
2023-01-13T21:50:12.422Z,5.95
2023-01-13T22:05:18.482Z,5.91
2023-01-13T22:20:22.919Z,5.76
2023-01-13T22:35:26.092Z,5.75
2023-01-13T22:50:28.947Z,5.70
2023-01-13T23:05:31.718Z,5.67
2023-01-13T23:20:34.697Z,5.61
2023-01-13T23:35:37.511Z,5.56
2023-01-13T23:50:42.504Z,5.54
